Delhi/Indira Gandhi International (IGI) Airport

Airport
ICAO code: 
VIDP
IATA Code: 
DEL
Summary
ICAO Region: 
APAC
Territory: 
Location: 
Palam, National Capitol Region of Delhi
Serving: 
New Delhi
Elevation: 
777 ft
Coordinates: 
Aerial View: 
28° 33' 29.916" N, 77° 5' 38.472" E
Airport BS: 
Bird Strike
Airport LOS: 
Parallel Runway Operation
Metar
Observation
VIDP 171631Z VRB02KT 1500 R28/P2000 R29/P2000 BR FEW035 SCT100 10/10 Q1022 NOSIG
Station
New Delhi / Palam
Date/Time
2022-01-17 16:31:00
Wind speed
02 kts
Lowest cloud amount
few clouds
Temperature
10°C
Dew point
10°C
Humidity
100%
QNH
1022 hPa
Weather condition
n/a

International airport serving the city of New Delhi.

Climatology

Humid “subtropical” climate (Köppen climate classification Cwa) - characterized by hot, humid summers and cool winters.

Overnight radiation fog in winter is a well-recognised problem.

Runways

Designator Length Width Surface Rops
9/27 2813 46 ASP Yes/Yes
10/28 3810 46 ASP Yes/Yes
11/29 4430 60 paved Yes/Yes

SKYbrary Partners:

Safety knowledge contributed by: